createdAt,value
2018-02-23T00:02:27.607Z,72.92
2018-02-23T00:04:56.138Z,72.20
2018-02-23T00:07:24.632Z,71.60
2018-02-23T00:09:53.113Z,71.54
2018-02-23T00:12:21.614Z,71.70
2018-02-23T00:14:50.111Z,71.65
2018-02-23T00:17:18.650Z,71.71
2018-02-23T00:19:47.199Z,72.20
2018-02-23T00:22:15.728Z,71.61
2018-02-23T00:24:44.187Z,71.38
2018-02-23T00:27:12.634Z,71.32
2018-02-23T00:29:41.130Z,71.30
2018-02-23T00:32:09.652Z,71.48
2018-02-23T00:34:38.160Z,71.27
2018-02-23T00:37:06.622Z,71.62
2018-02-23T00:39:35.111Z,71.22
2018-02-23T00:42:03.562Z,71.42
2018-02-23T00:44:32.062Z,71.16
2018-02-23T00:47:00.517Z,71.23
2018-02-23T00:49:29.006Z,70.86
2018-02-23T00:51:57.506Z,70.99
2018-02-23T00:54:26.035Z,71.03
2018-02-23T00:56:54.487Z,70.87
2018-02-23T00:59:23.007Z,70.85
2018-02-23T01:01:51.490Z,70.58
2018-02-23T01:04:19.987Z,70.64
2018-02-23T01:06:48.438Z,71.16
2018-02-23T01:09:16.899Z,70.93
2018-02-23T01:11:45.402Z,70.78
2018-02-23T01:14:13.882Z,70.56
2018-02-23T01:16:42.384Z,70.43
2018-02-23T01:19:10.896Z,70.43
2018-02-23T01:21:39.350Z,70.49
2018-02-23T01:24:07.802Z,70.46
2018-02-23T01:26:36.290Z,70.52
2018-02-23T01:29:04.783Z,70.54
2018-02-23T01:31:33.281Z,70.40
2018-02-23T01:34:01.819Z,70.35
2018-02-23T01:36:30.310Z,70.52
2018-02-23T01:38:58.774Z,70.25
2018-02-23T01:41:27.268Z,70.36
2018-02-23T01:43:55.794Z,70.31
2018-02-23T01:46:24.237Z,70.33
2018-02-23T01:48:52.740Z,70.28
2018-02-23T01:51:21.238Z,70.40
2018-02-23T01:53:49.693Z,70.21
2018-02-23T01:56:18.194Z,70.21
2018-02-23T01:58:46.653Z,70.21
2018-02-23T02:01:15.154Z,70.17
2018-02-23T02:03:43.642Z,70.10
2018-02-23T02:06:12.149Z,70.24
2018-02-23T02:08:40.598Z,70.38
2018-02-23T02:11:09.062Z,70.47
2018-02-23T02:13:37.541Z,70.37
2018-02-23T02:16:06.074Z,70.26
2018-02-23T02:18:34.597Z,70.60
2018-02-23T02:21:03.094Z,70.17
2018-02-23T02:23:31.630Z,70.35
2018-02-23T02:26:00.076Z,70.37
2018-02-23T02:28:28.571Z,70.57
2018-02-23T02:30:57.071Z,70.28
2018-02-23T02:33:25.525Z,70.46
2018-02-23T02:35:54.022Z,70.39
2018-02-23T02:38:22.491Z,70.23
2018-02-23T02:40:50.999Z,70.08
2018-02-23T02:43:19.511Z,70.38
2018-02-23T02:45:48.018Z,70.43
2018-02-23T02:48:16.500Z,70.50
2018-02-23T02:50:45.004Z,70.62
2018-02-23T02:53:13.466Z,70.61
2018-02-23T02:55:41.958Z,70.23
2018-02-23T02:58:10.489Z,70.49
2018-02-23T03:00:39.003Z,70.82
2018-02-23T03:03:07.506Z,70.61
2018-02-23T03:05:35.979Z,70.90
2018-02-23T03:08:04.483Z,70.68
2018-02-23T03:10:32.960Z,70.44
2018-02-23T03:13:01.459Z,70.42
2018-02-23T03:15:29.918Z,70.50
2018-02-23T03:17:58.467Z,70.44
2018-02-23T03:20:26.930Z,70.61
2018-02-23T03:22:55.401Z,70.67
2018-02-23T03:25:23.910Z,70.59
2018-02-23T03:27:52.432Z,70.65
2018-02-23T03:30:20.907Z,70.43
2018-02-23T03:32:49.449Z,70.55
2018-02-23T03:35:17.938Z,70.74
2018-02-23T03:37:46.442Z,70.54
2018-02-23T03:40:14.914Z,70.57
2018-02-23T03:42:43.433Z,70.59
2018-02-23T03:45:11.965Z,70.60
2018-02-23T03:47:40.441Z,70.40
2018-02-23T03:50:08.915Z,70.44
2018-02-23T03:52:37.410Z,70.73
2018-02-23T03:55:05.874Z,70.68
2018-02-23T03:57:34.369Z,70.99
2018-02-23T04:00:02.900Z,70.70
2018-02-23T04:02:31.405Z,70.52
2018-02-23T04:04:59.901Z,70.52
2018-02-23T04:07:28.354Z,70.68
2018-02-23T04:09:56.845Z,70.64
2018-02-23T04:12:25.334Z,70.90
2018-02-23T04:14:53.806Z,70.74
2018-02-23T04:17:22.321Z,70.77
2018-02-23T04:19:50.818Z,71.01
2018-02-23T04:22:19.317Z,71.26
2018-02-23T04:24:47.810Z,70.97
2018-02-23T04:27:16.282Z,71.00
2018-02-23T04:29:44.745Z,71.11
2018-02-23T04:32:13.233Z,70.91
2018-02-23T04:34:41.700Z,70.94
2018-02-23T04:37:10.172Z,70.88
2018-02-23T04:39:38.706Z,70.88
2018-02-23T04:42:07.166Z,70.96
2018-02-23T04:44:35.702Z,70.97
2018-02-23T04:47:04.187Z,71.13
2018-02-23T04:49:32.663Z,71.07
2018-02-23T04:52:01.241Z,71.06
2018-02-23T04:54:29.725Z,71.09
2018-02-23T04:56:58.247Z,71.06
2018-02-23T04:59:26.738Z,71.02
2018-02-23T05:01:55.237Z,71.23
2018-02-23T05:04:23.697Z,71.17
2018-02-23T05:06:52.206Z,71.29
2018-02-23T05:09:20.702Z,71.18
2018-02-23T05:11:49.170Z,71.04
2018-02-23T05:14:17.702Z,70.98
2018-02-23T05:16:46.245Z,71.00
2018-02-23T05:19:14.744Z,70.97
2018-02-23T05:21:43.274Z,70.91
2018-02-23T05:24:11.957Z,70.79
2018-02-23T05:26:40.413Z,70.75
2018-02-23T05:29:08.950Z,70.67
2018-02-23T05:31:37.458Z,70.67
2018-02-23T05:34:05.958Z,70.68
2018-02-23T05:36:34.451Z,70.92
2018-02-23T05:39:03.000Z,71.10
2018-02-23T05:41:31.539Z,70.90
2018-02-23T05:44:00.050Z,70.73
2018-02-23T05:46:28.542Z,70.66
2018-02-23T05:48:57.058Z,70.62
2018-02-23T05:51:25.519Z,70.60
2018-02-23T05:53:54.042Z,70.43
2018-02-23T05:56:22.525Z,70.43
2018-02-23T05:58:50.994Z,70.47
2018-02-23T06:01:19.574Z,70.44
2018-02-23T06:03:48.065Z,70.44
2018-02-23T06:06:16.554Z,70.38
2018-02-23T06:08:45.010Z,70.50
2018-02-23T06:11:13.502Z,70.56
2018-02-23T06:13:42.028Z,70.58
2018-02-23T06:16:16.026Z,70.71
2018-02-23T06:18:50.042Z,70.47
2018-02-23T06:21:18.561Z,70.34
2018-02-23T06:23:47.043Z,70.75
2018-02-23T06:26:15.527Z,70.45
2018-02-23T06:28:44.027Z,70.40
2018-02-23T06:31:12.527Z,70.36
2018-02-23T06:33:40.986Z,70.13
2018-02-23T06:36:09.492Z,70.19
2018-02-23T06:38:38.971Z,70.11
2018-02-23T06:41:07.478Z,70.29
2018-02-23T06:43:35.956Z,70.30
2018-02-23T06:46:04.576Z,70.58
2018-02-23T06:48:33.078Z,70.77
2018-02-23T06:51:01.538Z,70.57
2018-02-23T06:53:30.034Z,70.27
2018-02-23T06:55:58.602Z,69.90
2018-02-23T06:58:27.063Z,69.60
2018-02-23T07:00:55.522Z,69.59
2018-02-23T07:03:24.058Z,69.78
2018-02-23T07:05:52.572Z,69.68
2018-02-23T07:08:21.041Z,69.69
2018-02-23T07:10:49.508Z,68.94
2018-02-23T07:13:18.029Z,69.19
2018-02-23T07:15:46.522Z,68.86
2018-02-23T07:18:15.002Z,69.06
2018-02-23T07:20:43.517Z,69.04
2018-02-23T07:23:12.015Z,68.07
2018-02-23T07:25:45.248Z,68.04
2018-02-23T07:28:13.851Z,68.32
2018-02-23T07:30:42.431Z,68.17
2018-02-23T07:33:10.902Z,68.30
2018-02-23T07:35:39.365Z,68.24
2018-02-23T07:38:07.865Z,68.32
2018-02-23T07:40:36.378Z,68.38
2018-02-23T07:43:04.846Z,67.85
2018-02-23T07:45:33.346Z,67.93
2018-02-23T07:48:01.858Z,67.77
2018-02-23T07:50:30.400Z,67.70
2018-02-23T07:52:58.886Z,67.27
2018-02-23T07:55:27.383Z,67.49
2018-02-23T07:57:55.856Z,67.23
2018-02-23T08:00:24.422Z,67.70
2018-02-23T08:02:52.883Z,67.29
2018-02-23T08:05:21.391Z,67.15
2018-02-23T08:07:49.865Z,67.18
2018-02-23T08:10:18.386Z,67.33
2018-02-23T08:12:46.902Z,67.03
2018-02-23T08:15:15.426Z,66.48
2018-02-23T08:17:44.007Z,66.52
2018-02-23T08:20:12.521Z,66.77
2018-02-23T08:22:41.063Z,66.76
2018-02-23T08:25:09.590Z,66.73
2018-02-23T08:27:38.058Z,66.64
2018-02-23T08:30:06.565Z,66.36
2018-02-23T08:32:35.065Z,66.59
2018-02-23T08:35:03.565Z,66.31
2018-02-23T08:37:32.030Z,66.35
2018-02-23T08:40:00.518Z,66.31
2018-02-23T08:42:29.053Z,66.14
2018-02-23T08:44:57.570Z,66.16
2018-02-23T08:47:26.070Z,66.18
2018-02-23T08:49:54.541Z,65.99
2018-02-23T08:52:23.043Z,66.34
2018-02-23T08:54:51.498Z,66.28
2018-02-23T08:57:20.017Z,66.28
2018-02-23T08:59:48.489Z,65.92
2018-02-23T09:02:16.997Z,66.34
2018-02-23T09:04:45.505Z,65.87
2018-02-23T09:07:13.980Z,65.98
2018-02-23T09:09:42.482Z,66.63
2018-02-23T09:12:10.993Z,66.27
2018-02-23T09:14:39.465Z,66.40
2018-02-23T09:17:07.982Z,66.17
2018-02-23T09:19:36.498Z,66.33
2018-02-23T09:22:04.982Z,66.44
2018-02-23T09:24:33.503Z,66.79
2018-02-23T09:27:02.011Z,66.62
2018-02-23T09:29:30.498Z,66.56
2018-02-23T09:31:58.991Z,66.65
2018-02-23T09:34:38.322Z,66.49
2018-02-23T09:37:06.866Z,66.57
2018-02-23T09:39:35.364Z,66.03
2018-02-23T09:42:03.826Z,66.28
2018-02-23T09:44:32.323Z,66.04
2018-02-23T09:47:00.821Z,65.99
2018-02-23T09:49:29.337Z,65.73
2018-02-23T09:51:57.805Z,65.95
2018-02-23T09:54:26.310Z,65.94
2018-02-23T09:56:54.854Z,65.40
2018-02-23T09:59:23.347Z,65.74
2018-02-23T10:01:51.886Z,65.72
2018-02-23T10:04:20.348Z,66.03
2018-02-23T10:06:48.917Z,65.43
2018-02-23T10:09:17.445Z,65.56
2018-02-23T10:11:45.942Z,65.92
2018-02-23T10:14:14.470Z,65.49
2018-02-23T10:16:43.017Z,65.95
2018-02-23T10:19:11.495Z,65.79
2018-02-23T10:21:40.027Z,66.34
2018-02-23T10:24:08.514Z,66.08
2018-02-23T10:26:36.982Z,66.34
2018-02-23T10:29:05.496Z,66.29
2018-02-23T10:31:33.986Z,65.95
2018-02-23T10:34:02.488Z,66.23
2018-02-23T10:36:31.046Z,65.58
2018-02-23T10:38:59.566Z,65.98
2018-02-23T10:41:28.108Z,66.79
2018-02-23T10:43:56.670Z,66.68
2018-02-23T10:46:25.139Z,66.02
2018-02-23T10:48:53.674Z,66.47
2018-02-23T10:51:22.198Z,66.18
2018-02-23T10:53:50.706Z,65.99
2018-02-23T10:56:19.153Z,66.10
2018-02-23T10:58:47.677Z,66.00
2018-02-23T11:01:16.159Z,65.90
2018-02-23T11:03:44.700Z,65.58
2018-02-23T11:06:13.162Z,66.35
2018-02-23T11:08:41.686Z,66.38
2018-02-23T11:11:10.176Z,66.46
2018-02-23T11:13:38.693Z,66.17
2018-02-23T11:16:07.205Z,66.08
2018-02-23T11:18:35.689Z,65.97
2018-02-23T11:21:04.154Z,65.93
2018-02-23T11:23:32.657Z,66.35
2018-02-23T11:26:01.181Z,66.11
2018-02-23T11:28:29.690Z,66.24
2018-02-23T11:30:58.200Z,66.58
2018-02-23T11:33:26.729Z,66.35
2018-02-23T11:35:55.204Z,65.96
2018-02-23T11:38:23.759Z,66.35
2018-02-23T11:40:52.239Z,66.23
2018-02-23T11:43:20.788Z,66.18
2018-02-23T11:45:49.306Z,66.03
2018-02-23T11:48:17.768Z,66.84
2018-02-23T11:50:46.230Z,66.44
2018-02-23T11:53:14.746Z,66.06
2018-02-23T11:55:43.198Z,66.00
2018-02-23T12:16:26.510Z,66.08
2018-02-23T12:18:54.982Z,66.03
2018-02-23T12:21:23.568Z,66.28
2018-02-23T12:23:52.022Z,66.00
2018-02-23T12:26:20.535Z,66.15
2018-02-23T12:28:48.998Z,66.36
2018-02-23T12:31:17.482Z,66.08
2018-02-23T12:33:45.976Z,66.11
2018-02-23T12:36:14.452Z,66.13
2018-02-23T12:38:42.970Z,65.87
2018-02-23T12:41:11.434Z,65.33
2018-02-23T12:43:39.902Z,66.10
2018-02-23T12:46:08.483Z,65.77
2018-02-23T12:48:37.002Z,65.58
2018-02-23T12:51:05.652Z,66.30
2018-02-23T12:53:34.109Z,65.96
2018-02-23T12:56:02.710Z,66.14
2018-02-23T12:58:31.203Z,66.19
2018-02-23T13:00:59.727Z,66.08
2018-02-23T13:03:28.202Z,66.13
2018-02-23T13:05:56.702Z,66.40
2018-02-23T13:08:25.183Z,66.41
2018-02-23T13:10:53.728Z,66.71
2018-02-23T13:13:22.183Z,66.63
2018-02-23T13:15:50.750Z,66.31
2018-02-23T13:18:19.256Z,66.22
2018-02-23T13:20:47.755Z,66.10
2018-02-23T13:23:16.232Z,66.02
2018-02-23T13:25:44.765Z,66.09
2018-02-23T13:28:18.701Z,66.29
2018-02-23T13:30:47.200Z,66.59
2018-02-23T13:33:15.699Z,66.47
2018-02-23T13:35:44.230Z,66.39
2018-02-23T13:38:12.729Z,65.95
2018-02-23T13:40:41.234Z,66.39
2018-02-23T13:43:09.743Z,65.95
2018-02-23T13:45:38.222Z,65.62
2018-02-23T13:48:06.765Z,65.73
2018-02-23T13:50:35.234Z,66.40
2018-02-23T13:53:09.348Z,66.04
2018-02-23T13:55:37.819Z,66.21
2018-02-23T13:58:06.328Z,66.02
2018-02-23T14:00:35.567Z,65.95
2018-02-23T14:03:04.067Z,65.66
2018-02-23T14:05:33.357Z,65.82
2018-02-23T14:08:01.922Z,65.82
2018-02-23T14:10:30.387Z,65.96
2018-02-23T14:12:58.978Z,66.07
2018-02-23T14:15:27.483Z,66.08
2018-02-23T14:17:56.031Z,66.05
2018-02-23T14:20:24.521Z,65.63
2018-02-23T14:22:53.050Z,65.29
2018-02-23T14:25:21.563Z,65.17
2018-02-23T14:27:50.059Z,65.19
2018-02-23T14:30:18.566Z,65.31
2018-02-23T14:32:47.062Z,65.22
2018-02-23T14:35:15.603Z,65.30
2018-02-23T14:37:44.108Z,65.41
2018-02-23T14:40:12.618Z,66.38
2018-02-23T14:42:41.115Z,65.78
2018-02-23T14:45:09.610Z,65.80
2018-02-23T14:47:38.113Z,65.98
2018-02-23T14:50:18.281Z,65.57
2018-02-23T14:52:46.798Z,65.50
2018-02-23T14:55:15.282Z,65.58
2018-02-23T14:57:43.809Z,65.47
2018-02-23T15:00:12.338Z,65.64
2018-02-23T15:02:40.845Z,65.83
2018-02-23T19:20:37.995Z,68.51
2018-02-23T19:23:06.579Z,68.84
2018-02-23T19:25:35.166Z,68.50
2018-02-23T19:28:03.642Z,68.81
2018-02-23T19:30:32.175Z,68.63
2018-02-23T19:33:00.676Z,68.41
2018-02-23T19:35:29.254Z,68.34
2018-02-23T19:37:57.760Z,68.40
2018-02-23T19:40:26.255Z,68.19
2018-02-23T19:42:54.803Z,67.78
2018-02-23T19:45:23.253Z,67.82
2018-02-23T19:47:51.719Z,67.33
2018-02-23T19:50:20.230Z,67.74
2018-02-23T19:52:48.687Z,67.79
2018-02-23T19:55:17.194Z,67.75
2018-02-23T19:57:45.726Z,67.37
2018-02-23T20:00:14.228Z,67.50
2018-02-23T20:02:42.822Z,67.38
2018-02-23T20:05:11.299Z,67.47
2018-02-23T20:07:39.794Z,67.49
2018-02-23T20:10:08.262Z,67.13
2018-02-23T20:12:36.740Z,67.66
2018-02-23T20:15:05.247Z,67.61
2018-02-23T20:17:33.706Z,67.46
2018-02-23T20:20:02.182Z,67.43
2018-02-23T20:22:30.690Z,67.42
2018-02-23T20:24:59.189Z,67.24
2018-02-23T20:27:27.727Z,67.24
2018-02-23T20:29:56.307Z,67.38
2018-02-23T20:32:24.794Z,67.27
2018-02-23T20:34:53.270Z,67.27
2018-02-23T20:37:21.762Z,67.20
2018-02-23T20:39:50.247Z,67.96
2018-02-23T20:42:18.742Z,67.56
2018-02-23T20:44:47.258Z,67.62
2018-02-23T20:47:15.746Z,67.58
2018-02-23T20:49:44.211Z,67.49
2018-02-23T20:52:12.702Z,67.52
2018-02-23T20:54:41.198Z,67.48
2018-02-23T20:57:09.710Z,67.58
2018-02-23T20:59:38.197Z,67.55
2018-02-23T21:02:06.672Z,67.56
2018-02-23T21:04:35.172Z,67.51
2018-02-23T21:07:03.714Z,67.53
2018-02-23T21:09:32.177Z,67.55
2018-02-23T21:12:00.687Z,67.49
2018-02-23T21:14:29.138Z,67.64
2018-02-23T21:16:57.641Z,67.60
2018-02-23T21:19:26.159Z,67.61
2018-02-23T21:21:54.618Z,67.59
2018-02-23T21:24:23.110Z,67.42
2018-02-23T21:26:51.566Z,67.38
2018-02-23T21:29:20.074Z,67.60
2018-02-23T21:31:48.594Z,67.44
2018-02-23T21:34:17.102Z,67.42
2018-02-23T21:36:45.587Z,67.46
2018-02-23T21:39:14.064Z,67.54
2018-02-23T21:41:54.289Z,67.51
2018-02-23T21:44:22.909Z,67.50
2018-02-23T21:46:51.352Z,68.19
2018-02-23T21:49:19.850Z,67.90
2018-02-23T21:51:48.311Z,67.77
2018-02-23T21:54:16.793Z,67.73
2018-02-23T21:56:45.308Z,67.80
2018-02-23T21:59:13.863Z,67.80
2018-02-23T22:01:42.295Z,67.86
2018-02-23T22:04:10.844Z,67.72
2018-02-23T22:06:39.345Z,67.68
2018-02-23T22:09:07.791Z,67.85
2018-02-23T22:11:36.286Z,67.97
2018-02-23T22:14:04.750Z,67.79
2018-02-23T22:16:33.246Z,67.82
2018-02-23T22:19:01.774Z,67.77
2018-02-23T22:21:30.229Z,67.77
2018-02-23T22:23:58.760Z,67.78
2018-02-23T22:26:27.218Z,68.34
2018-02-23T22:28:55.746Z,68.04
2018-02-23T22:31:24.202Z,67.88
2018-02-23T22:33:52.695Z,67.97
2018-02-23T22:36:21.210Z,68.79
2018-02-23T22:38:49.683Z,68.16
2018-02-23T22:41:18.142Z,69.84
2018-02-23T22:43:46.652Z,69.33
2018-02-23T22:46:15.155Z,68.59
2018-02-23T22:48:43.667Z,68.62
2018-02-23T22:51:12.125Z,68.39
2018-02-23T22:53:40.594Z,68.32
2018-02-23T22:56:09.126Z,68.66
2018-02-23T22:58:37.577Z,68.66
2018-02-23T23:01:06.070Z,68.41
2018-02-23T23:03:34.570Z,68.22
2018-02-23T23:06:03.087Z,68.39
2018-02-23T23:08:31.550Z,68.25
2018-02-23T23:11:00.065Z,68.24
2018-02-23T23:13:28.597Z,68.24
2018-02-23T23:15:57.097Z,68.43
2018-02-23T23:18:25.578Z,68.33
2018-02-23T23:20:54.082Z,68.35
2018-02-23T23:23:22.538Z,68.17
2018-02-23T23:25:51.069Z,68.23
2018-02-23T23:28:20.530Z,68.36
2018-02-23T23:30:48.981Z,68.48
2018-02-23T23:33:17.513Z,68.41
2018-02-23T23:35:45.969Z,68.38
2018-02-23T23:38:14.476Z,68.40
2018-02-23T23:40:42.933Z,68.30
2018-02-23T23:43:11.386Z,68.46
2018-02-23T23:45:39.881Z,68.51
2018-02-23T23:48:08.370Z,68.85
2018-02-23T23:50:36.857Z,68.81
2018-02-23T23:53:05.350Z,68.80
2018-02-23T23:55:33.826Z,68.59
2018-02-23T23:58:02.317Z,68.86
